• Join FlightAware (Why Join?)
  • Login
  • US Flag 
03:27AM EDT


 

Airport Tracker/Info


-or-


 

Live Flight TrackerFlight Track Log ✈ QLK86D ✈ 21-May-2013 ✈ YMML / MEL - YMIA / MQL

Flight Track Log - Related Links

Times and Time Zones

All times are in EDT time to prevent confusion due to time zone crossing. See the QLK86D flight status page for this flight to view local times or setup timezone preferences in your user account.

Time Position Orientation Groundspeed Altitude Reporting Facility
EDT Latitude Longitude Course Direction KTS MPH feet Rate Location/Type
04:55AM -37.6597 144.7992 275° West 149 171 1,800  Level Aus ATC (RADAR)
04:56AM -37.6556 144.7412 275° West 201 231 3,200 2,100 Climbing Aus ATC (RADAR)
04:57AM -37.6535 144.6969 273° West 209 241 4,800 2,400 Climbing Aus ATC (RADAR)
04:58AM -37.6251 144.6544 310° West 224 258 6,400 1,860 Climbing Aus ATC (RADAR)
04:58AM -37.5994 144.6392 335° Northwest 239 275 7,000 1,800 Climbing Aus ATC (RADAR)
04:59AM -37.5443 144.5925 326° Northwest 255 293 8,800 1,680 Climbing Aus ATC (RADAR)
04:59AM -37.5178 144.5705 327° Northwest 267 307 9,300 1,200 Climbing Aus ATC (RADAR)
05:00AM -37.4834 144.5456 330° Northwest 281 323 9,900 1,560 Climbing Aus ATC (RADAR)
05:00AM -37.4430 144.5146 329° Northwest 285 328 11,000 1,680 Climbing Aus ATC (RADAR)
05:01AM -37.3914 144.4732 327° Northwest 289 333 12,200 1,560 Climbing Aus ATC (RADAR)
05:02AM -37.3508 144.4411 328° Northwest 291 335 13,100 1,440 Climbing Aus ATC (RADAR)
05:02AM -37.3094 144.4089 328° Northwest 296 341 13,900 1,260 Climbing Aus ATC (RADAR)
05:03AM -37.2673 144.3751 327° Northwest 303 349 14,600 1,200 Climbing Aus ATC (RADAR)
05:04AM -37.2184 144.3365 328° Northwest 307 353 15,400 1,140 Climbing Aus ATC (RADAR)
05:05AM -37.1443 144.2783 328° Northwest 311 358 16,500 960 Climbing Aus ATC (RADAR)
05:05AM -37.1128 144.2534 328° Northwest 317 365 16,800 780 Climbing Aus ATC (RADAR)
05:06AM -37.0679 144.2185 328° Northwest 322 371 17,300 780 Climbing Aus ATC (RADAR)
05:06AM -37.0093 144.1732 328° Northwest 327 376 17,900 780 Climbing Aus ATC (RADAR)
05:07AM -36.9634 144.1379 328° Northwest 329 379 18,400 960 Climbing Aus ATC (RADAR)
05:08AM -36.9058 144.0926 328° Northwest 323 372 19,200 1,080 Climbing Aus ATC (RADAR)
05:08AM -36.8740 144.0679 328° Northwest 320 368 19,700 900 Climbing Aus ATC (RADAR)
05:09AM -36.8295 144.0338 328° Northwest 319 367 20,100 900 Climbing Aus ATC (RADAR)
05:10AM -36.7422 143.9664 328° Northwest 311 358 21,300 1,020 Climbing Aus ATC (RADAR)
05:10AM -36.7121 143.9428 328° Northwest 305 351 21,700 180 Climbing Aus ATC (RADAR)
05:11AM -36.6623 143.9049 329° Northwest 315 362 21,500 -660 Descending Aus ATC (RADAR)
05:12AM -36.6045 143.8594 328° Northwest 329 379 20,800 -1,020 Descending Aus ATC (RADAR)
05:12AM -36.5578 143.8233 328° Northwest 339 390 20,200 -540 Descending Aus ATC (RADAR)
05:13AM -36.4965 143.7759 328° Northwest 344 396 20,100 -120 Descending Aus ATC (RADAR)
05:13AM -36.4630 143.7490 327° Northwest 342 394 20,100 -600 Level Aus ATC (RADAR)
05:14AM -36.4145 143.7132 329° Northwest 349 402 19,500 -720 Descending Aus ATC (RADAR)
05:15AM -36.3479 143.6606 327° Northwest 339 390 19,100 -360 Descending Aus ATC (RADAR)
05:15AM -36.3146 143.6341 327° Northwest 341 392 19,100  Level Aus ATC (RADAR)
05:16AM -36.2672 143.5986 329° Northwest 341 392 19,100  Level Aus ATC (RADAR)
05:17AM -36.2064 143.5509 328° Northwest 344 396 19,100  Level Aus ATC (RADAR)
05:17AM -36.1519 143.5094 328° Northwest 345 397 19,100  Level Aus ATC (RADAR)
05:18AM -36.0898 143.4626 329° Northwest 346 398 19,100  Level Aus ATC (RADAR)
05:18AM -36.0551 143.4362 328° Northwest 348 400 19,100  Level Aus ATC (RADAR)
05:19AM -36.0064 143.3995 329° Northwest 350 403 19,100  Level Aus ATC (RADAR)
05:20AM -35.9235 143.3356 328° Northwest 351 404 19,100  Level Aus ATC (RADAR)
05:20AM -35.8883 143.3104 330° Northwest 349 402 19,100  Level Aus ATC (RADAR)
05:21AM -35.8389 143.2749 330° Northwest 350 403 19,100  Level Aus ATC (RADAR)
05:22AM -35.7756 143.2296 330° Northwest 350 403 19,100  Level Aus ATC (RADAR)
05:22AM -35.7264 143.1939 330° Northwest 351 404 19,100  Level Aus ATC (RADAR)
05:23AM -35.6767 143.1594 331° Northwest 349 402 19,100  Level Aus ATC (RADAR)
05:24AM -35.6207 143.1239 333° Northwest 337 388 19,100  Level Aus ATC (RADAR)
05:24AM -35.5725 143.0929 332° Northwest 334 384 19,100  Level Aus ATC (RADAR)
05:25AM -35.5049 143.0424 329° Northwest 339 390 19,100  Level Aus ATC (RADAR)
05:25AM -35.4701 143.0194 332° Northwest 340 391 19,100  Level Aus ATC (RADAR)
05:26AM -35.4199 142.9891 334° Northwest 343 395 19,100  Level Aus ATC (RADAR)
05:27AM -35.3575 142.9457 330° Northwest 344 396 19,100  Level Aus ATC (RADAR)
05:27AM -35.3092 142.9113 330° Northwest 344 396 19,100  Level Aus ATC (RADAR)
05:28AM -35.2400 142.8611 329° Northwest 347 399 19,100  Level Aus ATC (RADAR)
05:29AM -35.2043 142.8381 332° Northwest 347 399 19,100 -540 Level Aus ATC (RADAR)
05:29AM -35.1549 142.8054 332° Northwest 346 398 18,600 -1,020 Descending Aus ATC (RADAR)
05:30AM -35.0703 142.7497 332° Northwest 343 395 17,500 -1,080 Descending Aus ATC (RADAR)
05:31AM -35.0355 142.7247 329° Northwest 347 399 17,100 -1,020 Descending Aus ATC (RADAR)
05:31AM -34.9866 142.6919 331° Northwest 342 394 16,500 -1,020 Descending Aus ATC (RADAR)
05:32AM -34.9252 142.6511 331° Northwest 334 384 15,800 -1,020 Descending Aus ATC (RADAR)
05:33AM -34.8791 142.6180 329° Northwest 331 381 15,200 -1,260 Descending Aus ATC (RADAR)
05:33AM -34.8181 142.5795 333° Northwest 330 380 14,200 -1,380 Descending Aus ATC (RADAR)
05:34AM -34.7864 142.5561 329° Northwest 323 372 13,600 -1,440 Descending Aus ATC (RADAR)
05:34AM -34.7473 142.5289 330° Northwest 325 374 12,900 -1,800 Descending Aus ATC (RADAR)
05:35AM -34.7015 142.4990 332° Northwest 322 371 11,700 -2,040 Descending Aus ATC (RADAR)
05:38AM -34.3042 142.2347 301° West 2,200 -3,120 Descending Aus ATC (Calculated)
05:39AM -34.2668 142.1601 294° West -1,620 Descending Aus ATC (Calculated)
05:40AM -34.2398 142.0854 298° West  Level FlightAware Approximate
05:41AM -34.2292 142.0856 294° West  Level Estimated
05:42AM -34.2292 142.0856 232° Southwest  Level Estimated
05:43AM -34.2292 142.0856 232° Southwest  Level Estimated
05:44AM -34.2292 142.0856 232° Southwest  Level Estimated
05:45AM -34.2292 142.0856 327° Northwest  Level Estimated
05:46AM -34.2292 142.0856 327° Northwest  Level Estimated
05:47AM -34.2292 142.0856 327° Northwest  Level Estimated